Time;durP1;ratioP1;P1;durP2;ratioP2;P2;SDS_P1;SDS_P2;PMS_P1;PMS_P2;Temp;Humidity;BMP_temperature;BMP_pressure;BME280_temperature;BME280_humidity;BME280_pressure;Samples;Min_cycle;Max_cycle;Signal;HPM_P1;HPM_P2
2021/08/02 00:00:08;;;;;;;1.35;1.25;;;;;;;18.07;70.61;100129.06;5016649;28;20399;-78
2021/08/02 00:02:47;;;;;;;2.20;1.83;;;;;;;18.11;70.55;100121.88;5034312;28;20403;-78
2021/08/02 00:05:13;;;;;;;3.42;1.63;;;;;;;18.07;70.47;100123.59;5033859;28;20854;-78
2021/08/02 00:07:41;;;;;;;2.28;1.50;;;;;;;18.00;70.82;100123.16;5034320;28;20746;-78
2021/08/02 00:10:10;;;;;;;2.55;1.15;;;;;;;18.02;70.72;100124.47;5034907;28;20394;-78
2021/08/02 00:12:40;;;;;;;1.52;1.50;;;;;;;18.05;70.07;100121.13;5034213;28;20398;-78
2021/08/02 00:15:07;;;;;;;2.00;1.50;;;;;;;18.04;70.25;100132.44;5033864;28;20778;-78
2021/08/02 00:17:32;;;;;;;3.25;1.13;;;;;;;17.99;70.47;100132.50;5034149;28;20391;-78
2021/08/02 00:19:58;;;;;;;1.42;1.33;;;;;;;17.99;70.36;100129.75;5033602;28;20413;-78
2021/08/02 00:22:23;;;;;;;1.77;1.67;;;;;;;18.05;70.29;100131.28;5034076;28;20479;-78
2021/08/02 00:24:49;;;;;;;1.33;1.27;;;;;;;18.01;70.34;100128.34;5033513;28;20941;-79
2021/08/02 00:27:15;;;;;;;3.83;1.50;;;;;;;17.96;70.38;100130.38;5052644;28;20393;-80
2021/08/02 00:29:40;;;;;;;2.60;1.10;;;;;;;17.91;70.57;100130.47;5047446;28;20437;-79
2021/08/02 00:32:07;;;;;;;1.40;1.20;;;;;;;17.89;70.48;100125.28;5033951;28;20419;-78
2021/08/02 00:34:32;;;;;;;1.70;1.30;;;;;;;17.88;70.43;100129.13;5033329;28;20395;-78
2021/08/02 00:37:02;;;;;;;2.77;1.50;;;;;;;17.76;70.71;100130.72;5033497;28;20407;-78
2021/08/02 00:39:37;;;;;;;1.25;1.25;;;;;;;17.67;71.06;100125.13;5033414;28;20493;-79
2021/08/02 00:42:21;;;;;;;1.55;1.35;;;;;;;17.72;71.21;100130.50;5034114;28;20468;-77
2021/08/02 00:44:59;;;;;;;3.00;1.92;;;;;;;17.70;71.06;100130.00;5033344;28;20460;-77
2021/08/02 00:47:30;;;;;;;2.58;1.40;;;;;;;17.68;71.03;100131.41;5033660;28;20411;-80
2021/08/02 00:50:07;;;;;;;1.45;1.35;;;;;;;17.65;70.98;100132.81;5033416;28;20407;-80
2021/08/02 00:52:34;;;;;;;2.20;1.60;;;;;;;17.62;71.12;100133.41;5033475;28;20882;-80
2021/08/02 00:55:02;;;;;;;1.95;1.35;;;;;;;17.57;71.24;100137.06;5033476;28;20397;-80
2021/08/02 00:57:32;;;;;;;1.20;1.10;;;;;;;17.48;71.34;100130.59;5033258;28;20403;-80
2021/08/02 01:00:02;;;;;;;1.30;1.20;;;;;;;17.51;71.25;100130.00;5033734;28;20407;-80
2021/08/02 01:02:28;;;;;;;2.92;1.52;;;;;;;17.53;71.17;100129.69;5033197;28;20399;-79
2021/08/02 01:04:54;;;;;;;1.90;1.20;;;;;;;17.43;70.91;100135.34;5032050;28;20411;-79
2021/08/02 01:07:21;;;;;;;5.30;1.38;;;;;;;17.39;71.05;100131.56;5033035;28;20395;-80
2021/08/02 01:09:47;;;;;;;1.40;1.30;;;;;;;17.43;70.74;100130.66;5033040;28;20391;-80
2021/08/02 01:12:13;;;;;;;1.93;1.40;;;;;;;17.42;70.68;100133.72;5033175;28;20441;-79
2021/08/02 01:14:39;;;;;;;3.20;1.15;;;;;;;17.46;70.38;100123.78;5015582;28;20402;-80
2021/08/02 01:17:10;;;;;;;2.80;1.60;;;;;;;17.50;70.12;100127.56;5033307;28;20966;-80
2021/08/02 01:19:36;;;;;;;1.17;1.17;;;;;;;17.43;70.25;100124.38;5015372;28;20536;-80
2021/08/02 01:22:03;;;;;;;3.55;1.80;;;;;;;17.40;70.16;100125.78;5032860;28;20394;-79
2021/08/02 01:24:33;;;;;;;1.50;1.33;;;;;;;17.41;70.27;100119.22;5032787;28;20847;-79
2021/08/02 01:26:59;;;;;;;9.15;1.60;;;;;;;17.43;69.99;100113.41;5033039;28;20406;-80
2021/08/02 01:30:15;;;;;;;1.77;1.23;;;;;;;17.43;69.98;100118.91;5031199;28;20403;-79
2021/08/02 01:32:41;;;;;;;2.72;1.30;;;;;;;17.40;70.13;100116.75;4986869;28;20756;-79
2021/08/02 01:35:08;;;;;;;2.60;1.20;;;;;;;17.38;70.17;100110.78;5032729;28;20406;-79
2021/08/02 01:37:33;;;;;;;1.45;1.38;;;;;;;17.37;70.32;100109.13;5032620;28;20942;-79
2021/08/02 01:39:58;;;;;;;1.83;1.37;;;;;;;17.35;70.65;100114.09;5030461;28;20490;-79
2021/08/02 01:42:24;;;;;;;3.67;1.30;;;;;;;17.29;71.03;100115.31;5032170;28;20453;-80
2021/08/02 01:44:49;;;;;;;1.83;1.30;;;;;;;17.26;71.08;100116.69;5032406;28;20403;-79
2021/08/02 01:47:28;;;;;;;3.97;1.80;;;;;;;17.28;71.26;100109.00;5019591;28;20904;-79
2021/08/02 01:50:15;;;;;;;2.75;1.60;;;;;;;17.32;71.24;100114.72;5032311;28;20409;-80
2021/08/02 01:53:01;;;;;;;3.30;1.50;;;;;;;17.30;71.33;100117.72;5012687;28;20396;-80
2021/08/02 01:55:27;;;;;;;2.85;1.35;;;;;;;17.30;71.34;100108.69;5012594;28;20408;-80
2021/08/02 01:57:57;;;;;;;2.65;1.65;;;;;;;17.30;71.40;100111.44;5012595;28;20820;-79
2021/08/02 02:00:23;;;;;;;2.10;1.80;;;;;;;17.33;71.46;100117.13;5030918;28;20478;-79
2021/08/02 02:02:57;;;;;;;2.97;1.63;;;;;;;17.33;71.48;100113.56;5031752;28;20882;-79
2021/08/02 02:05:30;;;;;;;1.60;1.50;;;;;;;17.33;71.78;100119.06;5032080;28;20445;-79
2021/08/02 02:07:59;;;;;;;3.05;1.75;;;;;;;17.34;71.91;100109.72;5031300;28;20395;-80
2021/08/02 02:10:26;;;;;;;1.77;1.65;;;;;;;17.35;71.86;100109.44;5032096;28;20387;-79
2021/08/02 02:12:53;;;;;;;4.13;2.05;;;;;;;17.34;71.91;100121.50;5030464;28;20394;-80
2021/08/02 02:15:19;;;;;;;4.25;2.33;;;;;;;17.35;71.73;100120.41;5030723;28;20468;-79
2021/08/02 02:17:45;;;;;;;2.08;1.55;;;;;;;17.42;71.87;100115.34;5031823;28;20882;-79
2021/08/02 02:20:13;;;;;;;2.22;1.80;;;;;;;17.44;71.73;100118.59;5031836;28;20395;-79
2021/08/02 02:22:39;;;;;;;2.85;1.70;;;;;;;17.44;71.70;100117.78;5031774;28;20399;-79
2021/08/02 02:25:11;;;;;;;1.63;1.53;;;;;;;17.42;71.82;100118.06;5031871;28;20560;-79
2021/08/02 02:27:37;;;;;;;1.90;1.80;;;;;;;17.44;71.91;100113.13;5031480;28;20394;-79
2021/08/02 02:30:05;;;;;;;2.10;1.77;;;;;;;17.40;71.89;100116.75;5031401;28;20395;-79
2021/08/02 02:32:32;;;;;;;4.85;1.95;;;;;;;17.32;72.13;100129.19;5031667;28;20426;-79
2021/08/02 02:35:00;;;;;;;2.53;1.90;;;;;;;17.28;72.42;100122.69;5031618;28;20391;-79
2021/08/02 02:37:25;;;;;;;3.42;1.42;;;;;;;17.27;72.36;100122.97;5031644;28;20394;-79
2021/08/02 02:39:52;;;;;;;1.65;1.55;;;;;;;17.28;72.55;100125.44;5031237;28;20403;-80
2021/08/02 02:42:19;;;;;;;1.88;1.77;;;;;;;17.29;72.51;100118.81;5018721;28;20403;-79
2021/08/02 02:44:46;;;;;;;2.15;1.77;;;;;;;17.31;72.59;100124.03;5028447;28;20411;-79
2021/08/02 02:47:11;;;;;;;3.60;2.78;;;;;;;17.32;72.64;100131.13;5031498;28;20754;-80
2021/08/02 02:49:38;;;;;;;2.20;1.70;;;;;;;17.30;72.53;100128.69;5031504;28;20525;-79
2021/08/02 02:52:05;;;;;;;2.72;1.70;;;;;;;17.28;72.49;100139.13;5031023;28;20429;-79
2021/08/02 02:54:32;;;;;;;3.42;2.20;;;;;;;17.27;72.67;100132.00;5031053;28;20414;-79
2021/08/02 02:56:58;;;;;;;2.30;2.10;;;;;;;17.27;72.56;100122.97;5031363;28;20395;-79
2021/08/02 02:59:24;;;;;;;2.20;1.80;;;;;;;17.28;72.59;100133.66;5030995;28;20425;-79
2021/08/02 03:01:51;;;;;;;2.83;2.10;;;;;;;17.30;72.58;100134.16;5030264;28;20403;-79
2021/08/02 03:04:19;;;;;;;2.70;1.80;;;;;;;17.33;72.58;100138.22;5030631;28;20822;-79
2021/08/02 03:06:46;;;;;;;4.88;1.80;;;;;;;17.33;72.43;100128.09;5028745;28;20411;-77
2021/08/02 03:09:16;;;;;;;2.83;1.85;;;;;;;17.34;72.46;100140.69;5030404;28;20391;-79
2021/08/02 03:11:42;;;;;;;6.35;2.90;;;;;;;17.32;72.37;100133.88;5030228;28;20410;-79
2021/08/02 03:14:08;;;;;;;2.00;1.90;;;;;;;17.28;72.42;100141.88;5030979;28;20486;-79
2021/08/02 03:16:33;;;;;;;4.90;2.00;;;;;;;17.21;72.59;100135.13;5028785;28;20494;-79
2021/08/02 03:18:58;;;;;;;2.47;2.27;;;;;;;17.24;72.57;100143.56;5029637;28;20913;-79
2021/08/02 03:21:24;;;;;;;5.10;2.50;;;;;;;17.30;72.31;100136.09;5030739;28;20399;-78
2021/08/02 03:24:08;;;;;;;2.20;2.10;;;;;;;17.32;71.82;100140.13;5029654;28;20457;-79
2021/08/02 03:26:47;;;;;;;2.03;1.92;;;;;;;17.32;72.10;100145.63;5031022;28;20906;-79
2021/08/02 03:29:34;;;;;;;2.72;2.35;;;;;;;17.31;72.35;100141.28;5030636;28;20855;-79
2021/08/02 03:32:04;;;;;;;2.75;2.33;;;;;;;17.31;72.54;100149.50;5031436;28;20399;-79
2021/08/02 03:34:32;;;;;;;3.78;2.40;;;;;;;17.25;72.45;100156.16;5030906;28;20886;-79
2021/08/02 03:37:01;;;;;;;7.22;3.22;;;;;;;17.21;72.70;100148.81;5030627;28;20909;-79
2021/08/02 03:39:26;;;;;;;3.80;2.50;;;;;;;17.23;72.66;100152.88;5029606;28;20782;-79
2021/08/02 03:41:52;;;;;;;2.72;2.35;;;;;;;17.21;72.93;100157.84;5030530;28;20453;-79
2021/08/02 03:44:20;;;;;;;4.47;2.30;;;;;;;17.19;72.80;100162.00;5030591;28;20455;-79
2021/08/02 03:46:45;;;;;;;2.95;2.53;;;;;;;17.12;73.23;100156.91;5029885;28;20399;-79
2021/08/02 03:49:11;;;;;;;5.50;2.35;;;;;;;17.13;73.49;100158.50;5031018;28;21203;-79
2021/08/02 03:51:47;;;;;;;3.50;2.87;;;;;;;17.10;73.25;100164.56;5030772;28;20408;-79
2021/08/02 03:54:14;;;;;;;3.30;2.78;;;;;;;17.06;73.44;100161.59;5030997;28;20517;-79
2021/08/02 03:56:42;;;;;;;3.15;2.47;;;;;;;17.05;73.55;100162.75;5030621;28;20400;-79
2021/08/02 03:59:07;;;;;;;5.20;2.70;;;;;;;17.07;73.49;100165.97;5030472;28;20397;-79
2021/08/02 04:01:44;;;;;;;4.13;2.33;;;;;;;17.10;73.50;100170.03;5030830;28;20483;-79
2021/08/02 04:04:10;;;;;;;6.70;2.97;;;;;;;17.09;73.54;100165.69;5032313;28;20506;-79
2021/08/02 04:06:36;;;;;;;3.80;2.70;;;;;;;17.06;73.53;100164.34;5034769;28;20477;-78
2021/08/02 04:09:04;;;;;;;2.55;2.35;;;;;;;17.09;73.49;100168.44;5017088;28;20742;-79
2021/08/02 04:11:30;;;;;;;5.15;3.50;;;;;;;17.10;73.39;100165.38;5033961;28;20895;-79
2021/08/02 04:13:55;;;;;;;3.03;2.50;;;;;;;17.12;73.38;100168.63;5034272;28;20403;-79
2021/08/02 04:16:20;;;;;;;3.70;2.67;;;;;;;17.15;73.37;100169.19;5034150;28;20470;-79
2021/08/02 04:18:46;;;;;;;2.53;2.33;;;;;;;17.17;73.45;100180.63;5033832;28;20405;-79
2021/08/02 04:21:11;;;;;;;2.90;2.28;;;;;;;17.16;73.36;100179.03;5033901;28;20403;-79
2021/08/02 04:23:36;;;;;;;3.03;2.47;;;;;;;17.15;73.31;100177.38;5034561;28;20446;-79
2021/08/02 04:26:02;;;;;;;4.50;2.57;;;;;;;17.15;73.42;100182.88;5032249;28;20419;-79
2021/08/02 04:28:27;;;;;;;3.00;2.57;;;;;;;17.14;73.38;100187.53;5034097;28;20419;-80
2021/08/02 04:30:52;;;;;;;4.03;2.53;;;;;;;17.15;73.14;100188.34;5033729;28;20387;-79
2021/08/02 04:33:18;;;;;;;3.97;2.10;;;;;;;17.15;73.27;100194.63;5033501;28;20409;-79
2021/08/02 04:35:44;;;;;;;2.40;2.20;;;;;;;17.15;73.37;100196.56;5033638;28;20457;-79
2021/08/02 04:38:10;;;;;;;4.35;2.47;;;;;;;17.14;73.26;100195.72;5033780;28;20396;-79
2021/08/02 04:40:35;;;;;;;2.83;2.63;;;;;;;17.18;73.30;100198.69;5034224;28;20414;-79
2021/08/02 04:43:01;;;;;;;2.30;2.20;;;;;;;17.19;73.16;100194.88;5016044;28;20905;-79
2021/08/02 04:45:26;;;;;;;3.25;2.35;;;;;;;17.19;73.11;100198.38;5033742;28;20387;-79
2021/08/02 04:47:51;;;;;;;2.47;2.27;;;;;;;17.21;73.16;100201.66;5033042;28;20396;-79
2021/08/02 04:50:17;;;;;;;3.00;2.40;;;;;;;17.26;72.93;100196.09;5033360;28;20751;-79
2021/08/02 04:52:44;;;;;;;2.55;2.20;;;;;;;17.32;72.54;100200.41;5033411;28;20398;-79
2021/08/02 04:55:10;;;;;;;2.42;2.03;;;;;;;17.38;72.61;100192.94;5033521;28;20930;-78
2021/08/02 04:57:35;;;;;;;4.25;2.50;;;;;;;17.42;72.49;100196.72;5016188;28;20481;-79
2021/08/02 05:00:01;;;;;;;4.82;2.38;;;;;;;17.43;72.48;100203.81;5032132;28;20478;-80
2021/08/02 05:02:27;;;;;;;3.43;2.63;;;;;;;17.43;72.68;100196.41;5033296;28;20460;-79
2021/08/02 05:04:52;;;;;;;5.13;2.80;;;;;;;17.46;72.45;100195.00;5033095;28;20399;-79
2021/08/02 05:07:17;;;;;;;3.27;2.40;;;;;;;17.50;72.10;100196.88;5033245;28;20391;-79
2021/08/02 05:09:42;;;;;;;4.00;2.50;;;;;;;17.53;72.51;100198.19;5032586;28;20403;-79
2021/08/02 05:12:08;;;;;;;3.28;2.80;;;;;;;17.57;72.04;100202.81;5032930;28;20415;-80
2021/08/02 05:14:33;;;;;;;5.00;2.80;;;;;;;17.59;72.08;100208.81;5014805;28;20492;-79
2021/08/02 05:16:58;;;;;;;4.93;2.53;;;;;;;17.60;72.11;100204.97;5014345;28;20442;-79
2021/08/02 05:19:24;;;;;;;5.03;2.33;;;;;;;17.63;72.02;100201.63;5032214;28;20545;-79
2021/08/02 05:21:49;;;;;;;4.83;2.50;;;;;;;17.66;72.07;100207.63;5032292;28;20790;-79
2021/08/02 05:24:14;;;;;;;3.67;2.73;;;;;;;17.66;72.32;100207.63;5031816;28;20431;-79
2021/08/02 05:26:40;;;;;;;3.95;2.58;;;;;;;17.62;72.21;100205.47;5032313;28;20739;-79
2021/08/02 05:29:05;;;;;;;3.13;2.30;;;;;;;17.61;72.46;100208.53;5014419;28;22076;-80
2021/08/02 05:31:30;;;;;;;5.85;2.25;;;;;;;17.58;72.37;100220.88;5032510;28;20410;-80
2021/08/02 05:33:56;;;;;;;7.73;2.53;;;;;;;17.58;72.24;100215.38;5031191;28;20835;-79
2021/08/02 05:36:21;;;;;;;2.80;2.23;;;;;;;17.57;72.31;100218.44;5032610;28;20433;-78
2021/08/02 05:38:46;;;;;;;3.40;2.07;;;;;;;17.58;72.47;100212.66;5032312;28;21087;-78
2021/08/02 05:41:12;;;;;;;5.72;1.98;;;;;;;17.58;72.39;100209.13;5032331;28;20545;-79
2021/08/02 05:43:37;;;;;;;2.33;1.93;;;;;;;17.54;72.62;100217.09;5031936;28;20795;-78
2021/08/02 05:46:02;;;;;;;2.23;1.87;;;;;;;17.56;72.56;100214.06;5014593;28;20418;-79
2021/08/02 05:48:28;;;;;;;5.80;2.30;;;;;;;17.60;72.38;100220.59;5036062;28;20837;-78
2021/08/02 05:50:53;;;;;;;5.20;2.20;;;;;;;17.65;72.18;100220.50;5038643;28;20545;-78
2021/08/02 05:53:19;;;;;;;4.00;2.03;;;;;;;17.72;72.09;100215.47;5031546;28;20827;-79
2021/08/02 05:55:44;;;;;;;2.27;1.70;;;;;;;17.79;71.53;100226.88;5031587;28;20403;-79
2021/08/02 05:58:11;;;;;;;4.67;1.80;;;;;;;17.86;71.59;100224.56;5031358;28;20403;-79
2021/08/02 06:00:36;;;;;;;3.72;1.90;;;;;;;17.85;71.45;100224.88;5031747;28;20452;-79
2021/08/02 06:03:02;;;;;;;3.78;2.10;;;;;;;17.85;71.66;100225.66;5031594;28;20407;-79
2021/08/02 06:05:27;;;;;;;5.37;2.30;;;;;;;17.89;71.87;100229.44;5032564;28;20407;-79
2021/08/02 06:07:52;;;;;;;2.63;1.97;;;;;;;17.94;71.65;100225.81;5029929;28;20426;-78
2021/08/02 06:10:17;;;;;;;2.57;1.77;;;;;;;17.96;71.83;100226.31;5027603;28;20415;-79
2021/08/02 06:12:43;;;;;;;4.80;2.30;;;;;;;17.97;71.58;100226.03;5032768;28;20878;-79
2021/08/02 06:15:10;;;;;;;2.10;2.00;;;;;;;17.93;71.76;100229.66;5031649;28;20461;-79
2021/08/02 06:17:36;;;;;;;4.00;1.90;;;;;;;17.97;71.63;100245.22;5041128;28;20407;-80
2021/08/02 06:20:02;;;;;;;3.53;2.00;;;;;;;18.00;71.38;100232.84;5031700;28;20468;-81
2021/08/02 06:22:27;;;;;;;2.13;1.95;;;;;;;18.03;71.53;100246.78;5035988;28;20440;-80
2021/08/02 06:24:52;;;;;;;2.73;1.73;;;;;;;18.07;71.05;100241.50;5011843;28;20454;-81
2021/08/02 06:27:18;;;;;;;3.88;2.30;;;;;;;18.09;70.88;100251.06;4992122;28;20762;-80
2021/08/02 06:29:43;;;;;;;3.00;1.70;;;;;;;17.97;71.39;100241.66;4991427;28;20402;-79
2021/08/02 06:32:08;;;;;;;2.43;1.83;;;;;;;17.97;71.42;100241.66;5007110;28;20461;-80
2021/08/02 06:34:34;;;;;;;2.75;1.85;;;;;;;18.02;71.53;100245.13;4992263;28;20460;-79
2021/08/02 06:36:59;;;;;;;3.83;1.80;;;;;;;18.10;71.26;100257.34;4988986;28;20422;-79
2021/08/02 06:39:25;;;;;;;5.05;2.38;;;;;;;18.12;71.24;100258.69;4993276;28;20479;-80
2021/08/02 06:41:50;;;;;;;4.30;1.70;;;;;;;18.15;71.28;100254.50;4990927;28;20410;-79
2021/08/02 06:44:16;;;;;;;1.70;1.60;;;;;;;18.10;71.29;100249.94;5007102;28;20426;-79
2021/08/02 06:46:41;;;;;;;4.28;1.70;;;;;;;18.11;70.30;100248.03;4990944;28;20418;-79
2021/08/02 06:49:06;;;;;;;2.83;1.77;;;;;;;18.16;69.82;100256.16;5005711;28;20566;-79
2021/08/02 06:51:32;;;;;;;2.37;1.63;;;;;;;18.19;70.54;100244.59;4991805;28;20446;-79
2021/08/02 06:53:57;;;;;;;3.33;2.67;;;;;;;18.17;70.69;100246.81;4985727;28;20427;-80
2021/08/02 06:56:23;;;;;;;2.67;1.83;;;;;;;18.15;69.76;100249.84;4993976;28;20527;-79
2021/08/02 06:58:48;;;;;;;2.05;1.95;;;;;;;18.23;69.76;100253.03;4991209;28;20762;-79
2021/08/02 07:01:14;;;;;;;1.80;1.70;;;;;;;18.27;69.23;100245.84;4991479;28;20401;-79
2021/08/02 07:03:40;;;;;;;2.00;1.73;;;;;;;18.30;69.19;100248.78;4991559;28;20521;-80
2021/08/02 07:06:05;;;;;;;3.00;1.77;;;;;;;18.39;68.86;100243.41;5005357;28;20913;-79
2021/08/02 07:08:30;;;;;;;4.77;1.93;;;;;;;18.47;67.97;100245.47;4986801;28;20410;-79
2021/08/02 07:10:56;;;;;;;2.97;2.25;;;;;;;18.66;67.04;100246.25;4989056;28;20414;-79
2021/08/02 07:13:21;;;;;;;2.00;1.90;;;;;;;18.78;66.17;100242.97;4989521;28;20424;-80
2021/08/02 07:15:46;;;;;;;5.13;1.93;;;;;;;18.73;67.09;100243.09;4984317;28;20752;-80
2021/08/02 07:18:12;;;;;;;3.07;1.83;;;;;;;18.73;66.98;100249.41;4990799;28;20533;-79
2021/08/02 07:20:37;;;;;;;4.20;1.80;;;;;;;18.77;66.60;100244.91;5005162;28;20418;-78
2021/08/02 07:23:02;;;;;;;2.53;2.20;;;;;;;18.81;66.87;100242.38;4990714;28;20410;-79
2021/08/02 07:25:28;;;;;;;2.90;1.70;;;;;;;18.96;66.53;100248.41;5016354;28;20418;-79
2021/08/02 07:27:53;;;;;;;2.30;1.55;;;;;;;19.06;65.40;100250.13;5026351;28;20759;-78
2021/08/02 07:30:18;;;;;;;2.70;2.50;;;;;;;19.11;64.67;100250.00;5031831;28;20772;-79
2021/08/02 07:32:44;;;;;;;2.37;2.00;;;;;;;19.11;65.34;100248.06;5030638;28;20406;-80
2021/08/02 07:35:11;;;;;;;2.80;1.58;;;;;;;19.18;65.65;100247.66;5030544;28;21377;-80
2021/08/02 07:37:42;;;;;;;2.03;1.80;;;;;;;19.21;65.15;100251.72;5041104;28;20753;-81
2021/08/02 07:40:09;;;;;;;2.60;1.80;;;;;;;19.28;65.26;100247.44;5033195;28;20422;-81
2021/08/02 07:42:35;;;;;;;3.17;1.80;;;;;;;19.39;64.40;100259.03;5037025;28;20403;-80
2021/08/02 07:45:00;;;;;;;2.00;1.90;;;;;;;19.43;63.95;100252.63;5032198;28;20403;-81
2021/08/02 07:47:25;;;;;;;1.60;1.50;;;;;;;19.50;63.66;100258.53;5034520;28;20442;-81
2021/08/02 07:49:51;;;;;;;2.83;1.40;;;;;;;19.51;63.68;100249.16;5029872;28;20403;-80
2021/08/02 07:52:16;;;;;;;2.10;1.67;;;;;;;19.56;64.08;100253.75;5020031;28;20405;-81
2021/08/02 07:54:41;;;;;;;1.80;1.70;;;;;;;19.59;63.38;100250.38;5025949;28;20415;-81
2021/08/02 07:57:07;;;;;;;1.83;1.70;;;;;;;19.57;64.08;100258.09;5033498;28;20423;-82
2021/08/02 07:59:32;;;;;;;1.70;1.60;;;;;;;19.56;63.62;100262.00;5033293;28;20383;-80
2021/08/02 08:01:59;;;;;;;1.60;1.50;;;;;;;19.51;63.91;100260.16;5033986;28;20978;-80
2021/08/02 08:04:24;;;;;;;1.63;1.63;;;;;;;19.53;64.17;100257.09;5014990;28;20422;-79
2021/08/02 08:06:49;;;;;;;1.77;1.70;;;;;;;19.64;62.76;100258.50;5031173;28;20893;-80
2021/08/02 08:09:15;;;;;;;1.85;1.75;;;;;;;19.62;63.70;100263.50;5024250;28;20457;-80
2021/08/02 08:11:40;;;;;;;3.93;1.70;;;;;;;19.66;63.00;100259.00;5032007;28;20446;-79
2021/08/02 08:14:05;;;;;;;1.63;1.53;;;;;;;19.67;62.59;100257.88;5023442;28;20409;-80
2021/08/02 08:16:31;;;;;;;2.40;1.70;;;;;;;19.69;63.58;100259.19;5029040;28;20410;-80
2021/08/02 08:18:56;;;;;;;1.60;1.50;;;;;;;19.79;63.22;100249.09;5028557;28;20436;-81
2021/08/02 08:21:22;;;;;;;2.70;1.77;;;;;;;19.90;62.79;100250.47;5029745;28;20422;-79
2021/08/02 08:23:47;;;;;;;3.28;1.80;;;;;;;20.01;63.06;100260.94;5030022;28;20418;-79
2021/08/02 08:26:13;;;;;;;2.30;1.90;;;;;;;20.15;63.35;100253.41;5023677;28;20431;-79
2021/08/02 08:28:38;;;;;;;3.03;1.83;;;;;;;20.26;63.19;100255.91;5027753;28;20522;-80
2021/08/02 08:31:06;;;;;;;2.23;1.50;;;;;;;20.13;63.42;100263.94;5027231;28;20465;-81
2021/08/02 08:33:31;;;;;;;1.90;1.80;;;;;;;20.09;62.98;100262.09;5025434;28;20469;-78
2021/08/02 08:35:57;;;;;;;1.87;1.73;;;;;;;20.27;63.04;100263.06;5019571;28;20439;-80
2021/08/02 08:38:23;;;;;;;2.13;1.70;;;;;;;20.26;62.52;100264.16;4986781;28;20426;-80
2021/08/02 08:40:48;;;;;;;1.65;1.45;;;;;;;20.31;61.35;100261.31;5025158;28;20425;-79
2021/08/02 08:43:17;;;;;;;2.40;1.90;;;;;;;20.36;61.16;100258.44;5027813;28;20770;-79
2021/08/02 08:45:43;;;;;;;5.20;1.90;;;;;;;20.41;61.56;100258.31;5026578;28;20399;-80
2021/08/02 08:48:08;;;;;;;4.67;1.83;;;;;;;20.44;61.84;100265.94;5024790;28;20469;-78
2021/08/02 08:50:37;;;;;;;3.53;1.60;;;;;;;20.55;59.89;100265.34;5033737;28;20759;-79
2021/08/02 08:53:03;;;;;;;1.85;1.75;;;;;;;20.58;60.79;100267.47;5011574;28;20440;-79
2021/08/02 08:55:29;;;;;;;3.50;2.58;;;;;;;20.63;60.70;100263.78;5022436;28;20411;-79
2021/08/02 08:57:54;;;;;;;2.45;1.73;;;;;;;20.70;59.90;100262.22;5027883;28;20759;-79
2021/08/02 09:00:22;;;;;;;1.83;1.57;;;;;;;20.74;60.68;100269.84;5029270;28;20407;-79
2021/08/02 09:02:48;;;;;;;5.20;1.75;;;;;;;20.79;59.83;100266.94;5029543;28;20415;-79
2021/08/02 09:05:13;;;;;;;2.47;1.70;;;;;;;20.78;61.01;100257.84;5028698;28;20414;-78
2021/08/02 09:07:40;;;;;;;2.10;1.77;;;;;;;20.88;61.05;100265.03;5028618;28;21118;-79
2021/08/02 09:10:11;;;;;;;4.15;2.05;;;;;;;20.96;60.89;100262.31;5026883;28;20403;-79
2021/08/02 09:12:51;;;;;;;4.28;2.28;;;;;;;21.01;60.79;100261.38;5029954;28;20878;-80
2021/08/02 09:15:18;;;;;;;1.83;1.73;;;;;;;21.09;59.54;100266.94;5029304;28;20407;-79
2021/08/02 09:17:43;;;;;;;2.50;2.30;;;;;;;21.15;58.96;100273.09;5029117;28;20414;-79
2021/08/02 09:20:19;;;;;;;2.33;2.13;;;;;;;21.25;59.80;100260.97;5032467;28;20949;-80
2021/08/02 09:22:45;;;;;;;2.67;2.30;;;;;;;21.21;59.84;100269.06;5031462;28;20473;-79
2021/08/02 09:25:20;;;;;;;3.73;2.60;;;;;;;21.31;58.99;100265.19;5030641;28;20423;-79
2021/08/02 09:27:47;;;;;;;2.63;2.42;;;;;;;21.43;58.58;100263.47;5027076;28;20411;-80
2021/08/02 09:30:18;;;;;;;2.55;2.00;;;;;;;21.48;57.76;100271.56;5027212;28;20586;-79
2021/08/02 09:32:52;;;;;;;4.38;2.00;;;;;;;21.50;58.20;100271.25;5020194;28;20904;-80
2021/08/02 09:35:33;;;;;;;3.50;2.05;;;;;;;21.38;58.43;100260.84;5017626;28;20947;-80
2021/08/02 09:38:01;;;;;;;2.45;2.00;;;;;;;21.30;58.36;100258.06;5026297;28;20409;-80
2021/08/02 09:40:27;;;;;;;2.40;2.20;;;;;;;21.26;58.45;100263.41;5002872;28;20426;-80
2021/08/02 09:42:57;;;;;;;3.20;2.20;;;;;;;21.29;58.95;100260.00;5023038;28;20502;-80
2021/08/02 09:45:23;;;;;;;2.75;2.22;;;;;;;21.50;58.52;100260.22;5018254;28;20545;-79
2021/08/02 09:47:50;;;;;;;2.42;1.90;;;;;;;21.64;58.10;100267.19;5022203;28;20417;-80
2021/08/02 09:50:31;;;;;;;2.10;2.00;;;;;;;21.88;57.82;100265.91;5016060;28;20407;-79
2021/08/02 09:52:59;;;;;;;3.17;2.08;;;;;;;22.07;57.33;100263.66;5016812;28;20490;-80
2021/08/02 09:55:26;;;;;;;3.38;2.03;;;;;;;22.29;56.92;100265.44;5022744;28;21097;-80
2021/08/02 09:57:53;;;;;;;3.85;1.83;;;;;;;22.38;56.24;100266.22;5021225;28;20411;-79
2021/08/02 10:00:19;;;;;;;2.75;1.80;;;;;;;22.48;55.76;100261.19;5012176;28;20837;-79
2021/08/02 10:02:50;;;;;;;1.67;1.58;;;;;;;22.79;55.15;100262.91;5030255;28;20403;-79
2021/08/02 10:05:17;;;;;;;3.20;1.85;;;;;;;23.34;52.86;100263.63;5019524;28;20414;-80
2021/08/02 10:07:44;;;;;;;3.00;1.50;;;;;;;23.90;52.91;100248.44;5024342;28;20399;-80
2021/08/02 10:10:11;;;;;;;4.28;1.35;;;;;;;24.46;51.15;100248.91;5029644;28;20415;-79
2021/08/02 10:12:42;;;;;;;2.30;1.45;;;;;;;24.94;49.56;100246.22;5029474;28;20910;-80
2021/08/02 10:15:19;;;;;;;2.80;1.30;;;;;;;25.88;47.24;100241.28;5024350;28;22086;-80
2021/08/02 10:17:50;;;;;;;1.35;1.25;;;;;;;26.89;43.51;100243.69;5023983;28;20429;-80
2021/08/02 10:20:35;;;;;;;1.58;1.00;;;;;;;29.10;39.65;100243.16;5030290;28;21026;-79
2021/08/02 10:23:03;;;;;;;1.05;0.80;;;;;;;30.74;36.62;100247.72;5012833;28;20550;-81
2021/08/02 10:25:36;;;;;;;1.67;1.50;;;;;;;30.73;34.50;100244.13;5031268;28;20431;-81
2021/08/02 10:28:13;;;;;;;1.98;0.90;;;;;;;29.02;38.35;100244.22;5027944;28;20839;-80
2021/08/02 10:30:43;;;;;;;1.25;1.00;;;;;;;27.48;40.85;100243.53;5031612;28;20403;-80
2021/08/02 10:33:09;;;;;;;1.43;0.90;;;;;;;26.81;42.46;100242.69;5028589;28;20411;-79
2021/08/02 10:35:45;;;;;;;2.58;1.27;;;;;;;27.43;42.04;100241.00;5027670;28;20406;-83
2021/08/02 10:38:19;;;;;;;2.00;0.75;;;;;;;26.63;41.93;100245.00;5024079;28;20434;-82
2021/08/02 10:40:44;;;;;;;2.35;1.10;;;;;;;25.53;44.62;100242.97;5031758;28;20789;-80
2021/08/02 10:43:09;;;;;;;1.23;0.70;;;;;;;24.67;46.45;100244.88;5029851;28;20466;-80
2021/08/02 10:45:35;;;;;;;2.50;1.23;;;;;;;23.83;48.85;100245.41;5027661;28;20783;-80
2021/08/02 10:48:01;;;;;;;1.40;1.20;;;;;;;24.93;48.09;100232.72;5029034;28;20418;-80
2021/08/02 10:50:30;;;;;;;1.70;0.75;;;;;;;28.12;38.58;100237.38;5029651;28;20419;-80
2021/08/02 10:52:56;;;;;;;1.27;0.90;;;;;;;31.12;33.11;100232.50;5022449;28;20425;-81
2021/08/02 10:55:25;;;;;;;5.50;0.60;;;;;;;32.75;30.12;100239.66;5024488;28;20403;-81
2021/08/02 10:58:00;;;;;;;1.13;0.70;;;;;;;31.25;31.35;100242.97;5024587;28;20428;-81
2021/08/02 11:00:27;;;;;;;2.50;0.77;;;;;;;31.60;31.83;100239.66;5026405;28;20767;-81
2021/08/02 11:02:57;;;;;;;1.17;0.90;;;;;;;31.66;32.18;100242.88;5008871;28;20415;-78
2021/08/02 11:05:28;;;;;;;1.92;0.88;;;;;;;32.39;31.19;100228.38;5012480;28;20411;-82
2021/08/02 11:07:54;;;;;;;1.90;0.80;;;;;;;32.86;29.72;100230.06;5039850;28;20439;-83
2021/08/02 11:10:19;;;;;;;1.35;0.77;;;;;;;31.14;33.20;100244.91;5020920;28;20496;-79
2021/08/02 11:12:46;;;;;;;1.30;0.90;;;;;;;28.08;41.24;100247.66;5022857;28;21105;-80
2021/08/02 11:15:12;;;;;;;3.08;0.95;;;;;;;25.87;47.18;100244.41;5029134;28;20415;-79
2021/08/02 11:17:48;;;;;;;2.03;0.80;;;;;;;24.59;50.05;100250.53;5031518;28;20439;-80
2021/08/02 11:20:14;;;;;;;0.70;0.70;;;;;;;23.56;50.80;100238.44;5019346;28;20596;-79
2021/08/02 11:22:56;;;;;;;0.70;0.70;;;;;;;23.21;49.19;100235.06;5025363;28;21151;-78
2021/08/02 11:25:28;;;;;;;1.63;0.70;;;;;;;22.99;49.92;100237.28;5032018;28;20477;-79